Time;durP1;ratioP1;P1;durP2;ratioP2;P2;SDS_P1;SDS_P2;PMS_P1;PMS_P2;Temp;Humidity;BMP_temperature;BMP_pressure;BME280_temperature;BME280_humidity;BME280_pressure;Samples;Min_cycle;Max_cycle;Signal;HPM_P1;HPM_P2
2022/12/19 00:00:18;;;;;;;0.00;0.00;;;-1.10;99.90;;;;;;5069699;28;20212;-81
2022/12/19 00:02:43;;;;;;;0.03;0.03;;;-1.20;99.90;;;;;;5055385;28;20189;-81
2022/12/19 00:05:09;;;;;;;0.40;0.40;;;-1.10;99.90;;;;;;5054844;28;20207;-80
2022/12/19 00:07:36;;;;;;;0.10;0.10;;;-1.20;99.90;;;;;;5069139;28;20269;-81
2022/12/19 00:10:02;;;;;;;0.10;0.10;;;-1.30;99.90;;;;;;5068451;28;20292;-81
2022/12/19 00:12:27;;;;;;;0.10;0.10;;;-1.10;99.90;;;;;;5054197;28;20699;-81
2022/12/19 00:14:53;;;;;;;0.10;0.10;;;-1.10;99.90;;;;;;5069784;28;20193;-80
2022/12/19 00:17:18;;;;;;;0.10;0.10;;;-1.30;99.90;;;;;;5069550;28;20189;-81
2022/12/19 00:19:44;;;;;;;0.10;0.10;;;-1.30;99.90;;;;;;5069553;28;20224;-81
2022/12/19 00:22:09;;;;;;;0.10;0.10;;;-1.40;99.90;;;;;;5068960;28;20197;-80
2022/12/19 00:24:35;;;;;;;0.10;0.10;;;-1.30;99.90;;;;;;5069349;28;20209;-81
2022/12/19 00:27:00;;;;;;;0.10;0.10;;;-1.50;99.90;;;;;;5068371;28;20189;-80
2022/12/19 00:29:26;;;;;;;0.10;0.10;;;-1.30;99.90;;;;;;5053066;28;20201;-81
2022/12/19 00:31:52;;;;;;;0.10;0.10;;;-1.20;99.90;;;;;;5066284;28;20173;-80
2022/12/19 00:34:18;;;;;;;1.90;1.80;;;-1.30;99.90;;;;;;5049615;28;20275;-80
2022/12/19 00:36:43;;;;;;;0.10;0.10;;;-1.40;99.90;;;;;;5052058;28;20281;-80
2022/12/19 00:39:10;;;;;;;0.10;0.10;;;-1.30;99.90;;;;;;5068553;28;20220;-81
2022/12/19 00:41:38;;;;;;;0.10;0.10;;;-1.40;99.90;;;;;;5053738;28;20195;-80
2022/12/19 00:44:07;;;;;;;0.10;0.10;;;-1.30;99.90;;;;;;5052838;28;20233;-81
2022/12/19 00:46:34;;;;;;;0.10;0.10;;;-1.10;99.90;;;;;;5069223;28;20190;-80
2022/12/19 00:49:00;;;;;;;0.10;0.10;;;-1.30;99.90;;;;;;5053354;28;20197;-80
2022/12/19 00:51:28;;;;;;;0.10;0.10;;;-1.50;99.90;;;;;;5054096;28;20205;-81
2022/12/19 00:53:55;;;;;;;0.10;0.10;;;-1.30;99.90;;;;;;5054214;28;20196;-81
2022/12/19 00:56:23;;;;;;;0.10;0.10;;;-1.20;99.90;;;;;;5055230;28;20185;-80
2022/12/19 00:58:49;;;;;;;0.10;0.10;;;-1.20;99.90;;;;;;5053122;28;20954;-81
2022/12/19 01:01:18;;;;;;;0.10;0.10;;;-1.30;99.90;;;;;;5070346;28;20185;-82
2022/12/19 01:03:45;;;;;;;0.10;0.10;;;-1.30;99.90;;;;;;5052356;28;20216;-81
2022/12/19 01:06:10;;;;;;;0.10;0.10;;;-1.30;99.90;;;;;;5053766;28;21303;-81
2022/12/19 01:08:36;;;;;;;0.00;0.00;;;-1.40;99.90;;;;;;5067508;28;20286;-80
2022/12/19 01:11:02;;;;;;;0.10;0.10;;;-1.40;99.90;;;;;;5069793;28;20266;-81
2022/12/19 01:13:30;;;;;;;0.10;0.10;;;-1.30;99.90;;;;;;5067896;28;20639;-80
2022/12/19 01:16:00;;;;;;;0.10;0.10;;;-1.30;99.90;;;;;;5068329;28;20211;-81
2022/12/19 01:18:26;;;;;;;0.10;0.10;;;-1.50;99.90;;;;;;5052996;28;20339;-81
2022/12/19 01:20:52;;;;;;;0.67;0.67;;;-1.40;99.90;;;;;;5051010;28;20272;-80
2022/12/19 01:23:17;;;;;;;0.03;0.03;;;-1.40;99.90;;;;;;5069997;28;20204;-81
2022/12/19 01:25:48;;;;;;;0.10;0.10;;;-1.30;99.90;;;;;;5073696;28;20197;-81
2022/12/19 01:28:14;;;;;;;0.10;0.10;;;-1.20;99.90;;;;;;5071963;28;20190;-80
2022/12/19 01:30:40;;;;;;;0.10;0.10;;;-1.20;99.90;;;;;;5058079;28;20182;-81
2022/12/19 01:33:09;;;;;;;0.10;0.10;;;-1.40;99.90;;;;;;5072219;28;20192;-80
2022/12/19 01:35:35;;;;;;;0.10;0.10;;;-1.40;99.90;;;;;;5055381;28;20194;-80
2022/12/19 01:38:00;;;;;;;0.07;0.07;;;-1.30;99.90;;;;;;5071001;28;20189;-81
2022/12/19 01:40:26;;;;;;;0.10;0.10;;;-1.30;99.90;;;;;;5073091;28;20594;-80
2022/12/19 01:42:51;;;;;;;0.10;0.10;;;-1.30;99.90;;;;;;5071071;28;20646;-80
2022/12/19 01:45:29;;;;;;;0.10;0.10;;;-1.30;99.90;;;;;;5072326;28;20252;-80
2022/12/19 01:48:23;;;;;;;0.00;0.00;;;-1.40;99.90;;;;;;5070161;28;20450;-80
2022/12/19 01:50:58;;;;;;;0.10;0.10;;;-1.30;99.90;;;;;;5052716;28;20708;-79
2022/12/19 01:53:28;;;;;;;0.10;0.10;;;-1.30;99.90;;;;;;5057225;28;20257;-81
2022/12/19 01:55:54;;;;;;;0.10;0.10;;;-1.20;99.90;;;;;;5071694;28;20182;-80
2022/12/19 01:58:21;;;;;;;0.10;0.10;;;-1.30;99.90;;;;;;5071092;28;20319;-81
2022/12/19 02:00:47;;;;;;;0.10;0.10;;;-1.30;99.90;;;;;;5056688;28;20692;-80
2022/12/19 02:03:26;;;;;;;0.10;0.10;;;-1.30;99.90;;;;;;5057514;28;20205;-80
2022/12/19 02:05:52;;;;;;;0.10;0.10;;;-1.20;99.90;;;;;;5056280;28;20212;-81
2022/12/19 02:08:18;;;;;;;0.20;0.20;;;-1.20;99.90;;;;;;5058022;28;20288;-80
2022/12/19 02:10:44;;;;;;;0.10;0.10;;;-1.30;99.90;;;;;;5072020;28;20192;-81
2022/12/19 02:13:10;;;;;;;0.10;0.10;;;-1.30;99.90;;;;;;5071563;28;20270;-80
2022/12/19 02:16:07;;;;;;;0.83;0.83;;;-1.30;99.90;;;;;;5056306;28;20188;-81
2022/12/19 02:18:51;;;;;;;0.10;0.10;;;-1.40;99.90;;;;;;5057343;28;20244;-80
2022/12/19 02:21:26;;;;;;;0.10;0.10;;;-1.40;99.90;;;;;;5054810;28;20185;-80
2022/12/19 02:24:13;;;;;;;0.10;0.10;;;-1.40;99.90;;;;;;5052105;28;20295;-80
2022/12/19 02:26:41;;;;;;;0.10;0.10;;;-1.10;99.90;;;;;;5069128;28;20326;-80
2022/12/19 02:29:25;;;;;;;0.10;0.10;;;-0.90;99.90;;;;;;5071756;28;21095;-80
2022/12/19 02:32:01;;;;;;;0.10;0.10;;;-1.00;99.90;;;;;;5071543;28;20202;-80
2022/12/19 02:34:55;;;;;;;0.10;0.10;;;-0.90;99.90;;;;;;5069869;28;20227;-80
2022/12/19 02:37:30;;;;;;;0.10;0.10;;;-0.80;99.90;;;;;;5054398;28;20186;-80
2022/12/19 02:40:14;;;;;;;0.10;0.10;;;-0.90;99.90;;;;;;5052859;28;20236;-80
2022/12/19 02:42:44;;;;;;;0.37;0.37;;;-0.90;99.90;;;;;;5071457;28;20180;-80
2022/12/19 02:45:13;;;;;;;0.10;0.10;;;-0.80;99.90;;;;;;5054498;28;20217;-80
2022/12/19 02:47:40;;;;;;;0.10;0.10;;;-0.60;99.90;;;;;;5069323;28;20273;-81
2022/12/19 02:50:07;;;;;;;0.10;0.10;;;-0.40;99.90;;;;;;5069157;28;20206;-81
2022/12/19 02:52:32;;;;;;;0.10;0.10;;;-0.50;99.90;;;;;;5054651;28;20650;-80
2022/12/19 02:55:03;;;;;;;0.10;0.10;;;-0.50;99.90;;;;;;5070984;28;20310;-81
2022/12/19 02:57:31;;;;;;;0.10;0.10;;;-0.50;99.90;;;;;;5054363;28;20232;-79
2022/12/19 03:00:22;;;;;;;0.00;0.00;;;-0.30;99.90;;;;;;5071057;28;20211;-80
2022/12/19 03:03:06;;;;;;;0.10;0.10;;;-0.20;99.90;;;;;;5070905;28;20193;-81
2022/12/19 03:05:57;;;;;;;0.00;0.00;;;-0.30;99.90;;;;;;5071802;28;20547;-80
2022/12/19 03:08:59;;;;;;;0.00;0.00;;;-0.20;99.90;;;;;;5060572;28;20703;-81
2022/12/19 03:11:32;;;;;;;0.10;0.10;;;-0.20;99.90;;;;;;5056902;28;20168;-80
2022/12/19 03:14:12;;;;;;;0.10;0.10;;;-0.40;99.90;;;;;;5071042;28;20208;-80
2022/12/19 03:16:38;;;;;;;0.10;0.10;;;-0.60;99.90;;;;;;5071022;28;20181;-81
2022/12/19 03:19:08;;;;;;;0.57;0.57;;;-0.50;99.90;;;;;;5070041;28;20282;-81
2022/12/19 03:21:39;;;;;;;0.10;0.10;;;-0.40;99.90;;;;;;5053911;28;20178;-81
2022/12/19 03:24:08;;;;;;;0.10;0.10;;;-0.30;99.90;;;;;;5069482;28;20201;-80
2022/12/19 03:26:42;;;;;;;0.10;0.10;;;-0.30;99.90;;;;;;5067576;28;20182;-80
2022/12/19 03:29:20;;;;;;;0.10;0.10;;;-0.10;99.90;;;;;;5054285;28;20902;-81
2022/12/19 03:31:46;;;;;;;0.10;0.10;;;-0.20;99.90;;;;;;5053437;28;20235;-80
2022/12/19 03:34:19;;;;;;;0.10;0.10;;;-0.10;99.90;;;;;;5071832;28;20185;-81
2022/12/19 03:36:51;;;;;;;0.10;0.10;;;-0.10;99.90;;;;;;5053227;28;20185;-80
2022/12/19 03:39:19;;;;;;;0.10;0.10;;;-0.30;99.90;;;;;;5049558;28;20213;-81
2022/12/19 03:44:38;;;;;;;0.10;0.10;;;0.10;99.90;;;;;;5054426;28;20567;-81
2022/12/19 03:47:13;;;;;;;0.10;0.10;;;-0.20;99.90;;;;;;5051462;28;20183;-81
2022/12/19 03:49:39;;;;;;;0.00;0.00;;;-0.20;99.90;;;;;;5069870;28;20231;-80
2022/12/19 03:52:34;;;;;;;0.10;0.10;;;-0.30;99.90;;;;;;5054154;28;20231;-81
2022/12/19 03:55:06;;;;;;;0.10;0.10;;;-0.40;99.90;;;;;;5055896;28;20191;-81
2022/12/19 03:57:57;;;;;;;0.10;0.10;;;-0.30;99.90;;;;;;5070205;28;20217;-80
2022/12/19 04:00:24;;;;;;;0.10;0.10;;;-0.10;99.90;;;;;;5070294;28;20292;-81
2022/12/19 04:02:52;;;;;;;0.10;0.10;;;-0.10;99.90;;;;;;5070446;28;20598;-80
2022/12/19 04:05:22;;;;;;;0.10;0.10;;;-0.10;99.90;;;;;;5055140;28;20205;-81
2022/12/19 04:07:50;;;;;;;0.10;0.10;;;-0.30;99.90;;;;;;5069532;28;20561;-81
2022/12/19 04:10:20;;;;;;;0.10;0.10;;;-0.20;99.90;;;;;;5053762;28;20210;-81
2022/12/19 04:12:52;;;;;;;0.10;0.10;;;0.10;99.90;;;;;;5054581;28;20174;-81
2022/12/19 04:15:24;;;;;;;0.10;0.10;;;0.20;99.90;;;;;;5054664;28;20243;-81
2022/12/19 04:17:56;;;;;;;0.10;0.10;;;0.40;99.90;;;;;;5053774;28;20192;-81
2022/12/19 04:20:24;;;;;;;0.10;0.10;;;0.50;99.90;;;;;;5068038;28;20213;-80
2022/12/19 04:22:50;;;;;;;0.10;0.10;;;0.60;99.90;;;;;;5067460;28;20198;-80
2022/12/19 04:25:20;;;;;;;0.10;0.10;;;0.60;99.90;;;;;;5052796;28;20844;-81
2022/12/19 04:27:52;;;;;;;0.10;0.10;;;0.40;99.90;;;;;;5067752;28;20198;-81
2022/12/19 04:30:18;;;;;;;0.10;0.10;;;0.40;99.90;;;;;;5067497;28;20759;-80
2022/12/19 04:32:45;;;;;;;0.10;0.10;;;0.30;99.90;;;;;;5068269;28;20186;-81
2022/12/19 04:35:11;;;;;;;0.10;0.10;;;0.20;99.90;;;;;;5054881;28;20344;-81
2022/12/19 04:37:37;;;;;;;0.03;0.03;;;0.40;99.90;;;;;;5067878;28;20888;-81
2022/12/19 04:40:03;;;;;;;0.10;0.10;;;0.30;99.90;;;;;;5050709;28;20214;-81
2022/12/19 04:42:29;;;;;;;0.10;0.10;;;0.10;99.90;;;;;;5068176;28;20555;-81
2022/12/19 04:44:54;;;;;;;0.10;0.10;;;-0.30;99.90;;;;;;5067887;28;20205;-81
2022/12/19 04:47:20;;;;;;;0.10;0.10;;;-0.50;99.90;;;;;;5053864;28;20200;-81
2022/12/19 04:49:47;;;;;;;1.03;1.03;;;-0.60;99.90;;;;;;5068136;28;20224;-81
2022/12/19 04:52:12;;;;;;;0.10;0.10;;;-0.70;99.90;;;;;;5069183;28;20201;-80
2022/12/19 04:54:38;;;;;;;0.10;0.10;;;-0.60;99.90;;;;;;5067162;28;20257;-81
2022/12/19 04:57:03;;;;;;;0.10;0.10;;;-0.70;99.90;;;;;;5067145;28;20285;-81
2022/12/19 04:59:29;;;;;;;0.10;0.10;;;-0.70;99.90;;;;;;5068598;28;20246;-81
2022/12/19 05:01:54;;;;;;;0.10;0.10;;;-0.60;99.90;;;;;;5067772;28;21041;-81
2022/12/19 05:04:20;;;;;;;0.10;0.10;;;-0.50;99.90;;;;;;5065719;28;21219;-81
2022/12/19 05:06:45;;;;;;;0.10;0.10;;;-0.50;99.90;;;;;;5050621;28;20917;-81
2022/12/19 05:09:11;;;;;;;0.10;0.10;;;-0.50;99.90;;;;;;5068367;28;20221;-81
2022/12/19 05:11:37;;;;;;;0.10;0.10;;;-0.50;99.90;;;;;;5067732;28;20820;-81
2022/12/19 05:14:03;;;;;;;0.10;0.10;;;-0.50;99.90;;;;;;5070081;28;20182;-82
2022/12/19 05:16:28;;;;;;;0.10;0.10;;;-0.50;99.90;;;;;;5069103;28;20519;-80
2022/12/19 05:18:54;;;;;;;0.10;0.10;;;-0.40;99.90;;;;;;5040120;28;20796;-81
2022/12/19 05:21:21;;;;;;;0.10;0.10;;;-0.40;99.90;;;;;;5049989;28;20691;-81
2022/12/19 05:23:48;;;;;;;0.00;0.00;;;-0.50;99.90;;;;;;5063088;28;20260;-81
2022/12/19 05:26:14;;;;;;;0.10;0.10;;;-0.50;99.90;;;;;;5050551;28;20184;-80
2022/12/19 05:28:40;;;;;;;0.10;0.10;;;-0.40;99.90;;;;;;5050582;28;20204;-81
2022/12/19 05:31:07;;;;;;;0.10;0.10;;;-0.30;99.90;;;;;;5068540;28;20178;-80
2022/12/19 05:33:33;;;;;;;0.10;0.10;;;-0.40;99.90;;;;;;5050992;28;20185;-81
2022/12/19 05:35:58;;;;;;;0.10;0.10;;;-0.40;99.90;;;;;;5065132;28;20190;-81
2022/12/19 05:38:25;;;;;;;0.10;0.10;;;-0.20;99.90;;;;;;5048680;28;20202;-81
2022/12/19 05:40:50;;;;;;;0.10;0.10;;;-0.20;99.90;;;;;;5066521;28;20189;-80
2022/12/19 05:43:16;;;;;;;0.10;0.10;;;-0.20;99.90;;;;;;5051158;28;20188;-81
2022/12/19 05:45:42;;;;;;;0.03;0.03;;;0.10;99.90;;;;;;5053646;28;20216;-81
2022/12/19 05:48:10;;;;;;;0.10;0.10;;;0.10;99.90;;;;;;5053135;28;20177;-82
2022/12/19 05:50:36;;;;;;;0.10;0.10;;;0.10;99.90;;;;;;5052264;28;20174;-82
2022/12/19 05:53:01;;;;;;;0.10;0.10;;;0.20;99.90;;;;;;5067843;28;20239;-81
2022/12/19 05:55:27;;;;;;;0.10;0.10;;;0.30;99.90;;;;;;5068690;28;20274;-80
2022/12/19 05:57:52;;;;;;;0.10;0.10;;;0.20;99.90;;;;;;5068574;28;20228;-81
2022/12/19 06:00:18;;;;;;;0.10;0.10;;;0.20;99.90;;;;;;5051394;28;20326;-80
2022/12/19 06:02:45;;;;;;;0.10;0.10;;;0.30;99.90;;;;;;5068511;28;20296;-81
2022/12/19 06:05:11;;;;;;;0.10;0.10;;;0.00;99.90;;;;;;5069273;28;20201;-81
2022/12/19 06:07:36;;;;;;;0.10;0.10;;;-0.20;99.90;;;;;;5050623;28;20234;-80
2022/12/19 06:10:02;;;;;;;0.10;0.10;;;-0.10;99.90;;;;;;5070278;28;20201;-83
2022/12/19 06:12:28;;;;;;;0.10;0.10;;;-0.10;99.90;;;;;;5056334;28;20186;-82
2022/12/19 06:14:53;;;;;;;0.10;0.10;;;0.10;99.90;;;;;;5070792;28;20186;-82
2022/12/19 06:17:20;;;;;;;0.10;0.10;;;0.00;99.90;;;;;;5071039;28;20197;-82
2022/12/19 06:19:46;;;;;;;0.00;0.00;;;-0.10;99.90;;;;;;5052493;28;20205;-82
2022/12/19 06:22:11;;;;;;;0.10;0.10;;;-0.20;99.90;;;;;;5055163;28;20192;-79
2022/12/19 06:24:37;;;;;;;0.07;0.07;;;-0.10;99.90;;;;;;5051446;28;20874;-81
2022/12/19 06:27:02;;;;;;;0.10;0.10;;;0.10;99.90;;;;;;5066754;28;20670;-80
2022/12/19 06:29:28;;;;;;;0.10;0.10;;;0.10;99.90;;;;;;5054818;28;20214;-81
2022/12/19 06:31:53;;;;;;;0.00;0.00;;;0.20;99.90;;;;;;5069545;28;20190;-81
2022/12/19 06:34:19;;;;;;;0.10;0.10;;;0.10;99.90;;;;;;5056474;28;20190;-81
2022/12/19 06:36:46;;;;;;;0.10;0.10;;;0.20;99.90;;;;;;5066111;28;20193;-80
2022/12/19 06:39:13;;;;;;;0.10;0.10;;;0.20;99.90;;;;;;5069692;28;20217;-80
2022/12/19 06:44:23;;;;;;;0.10;0.10;;;0.40;99.90;;;;;;5056443;28;20760;-79
2022/12/19 06:46:51;;;;;;;0.10;0.10;;;0.20;99.90;;;;;;5053059;28;20276;-80
2022/12/19 06:49:16;;;;;;;0.10;0.10;;;0.30;99.90;;;;;;5070953;28;20210;-80
2022/12/19 06:51:42;;;;;;;0.10;0.10;;;0.20;99.90;;;;;;5069939;28;20197;-79
2022/12/19 06:54:12;;;;;;;0.10;0.10;;;0.40;99.90;;;;;;5070672;28;20209;-80
2022/12/19 06:56:40;;;;;;;0.10;0.10;;;0.30;99.90;;;;;;5056327;28;20190;-81
2022/12/19 06:59:07;;;;;;;0.10;0.10;;;0.40;99.90;;;;;;5073027;28;20225;-80
2022/12/19 07:01:38;;;;;;;0.07;0.07;;;0.30;99.90;;;;;;5053333;28;20253;-81
2022/12/19 07:04:05;;;;;;;0.00;0.00;;;0.20;99.90;;;;;;5055581;28;20585;-82
2022/12/19 07:06:31;;;;;;;0.10;0.10;;;0.30;99.90;;;;;;5070106;28;20190;-81
2022/12/19 07:08:56;;;;;;;0.10;0.10;;;0.30;99.90;;;;;;5070683;28;20211;-80
2022/12/19 07:11:22;;;;;;;0.10;0.10;;;0.20;99.90;;;;;;5057193;28;20189;-81
2022/12/19 07:13:47;;;;;;;0.10;0.10;;;0.30;99.90;;;;;;5056956;28;20188;-81
2022/12/19 07:16:13;;;;;;;0.10;0.10;;;0.20;99.90;;;;;;5054741;28;20186;-80
2022/12/19 07:18:40;;;;;;;0.10;0.10;;;0.10;99.90;;;;;;5055605;28;20340;-80
2022/12/19 07:21:10;;;;;;;0.00;0.00;;;0.10;99.90;;;;;;5072312;28;20510;-80
2022/12/19 07:23:36;;;;;;;0.10;0.10;;;0.20;99.90;;;;;;5054598;28;20201;-81
2022/12/19 07:26:02;;;;;;;0.10;0.10;;;0.10;99.90;;;;;;5071279;28;20205;-81
2022/12/19 07:28:27;;;;;;;0.07;0.07;;;0.10;99.90;;;;;;5069420;28;20293;-80
2022/12/19 07:30:53;;;;;;;0.10;0.10;;;0.20;99.90;;;;;;5069374;28;20229;-82
2022/12/19 07:33:19;;;;;;;0.10;0.10;;;0.20;99.90;;;;;;5053682;28;20230;-81
2022/12/19 07:35:44;;;;;;;0.10;0.10;;;0.20;99.90;;;;;;5069566;28;20195;-81
2022/12/19 07:38:10;;;;;;;0.10;0.10;;;0.10;99.90;;;;;;5069371;28;20187;-80
2022/12/19 07:40:35;;;;;;;0.10;0.10;;;0.10;99.90;;;;;;5066278;28;20242;-80
2022/12/19 07:43:03;;;;;;;0.10;0.10;;;0.20;99.90;;;;;;5048671;28;20241;-83
2022/12/19 07:45:29;;;;;;;0.10;0.10;;;0.20;99.90;;;;;;5055015;28;20209;-83
2022/12/19 07:47:55;;;;;;;0.10;0.10;;;0.50;99.90;;;;;;5069595;28;20182;-83
2022/12/19 07:50:24;;;;;;;0.00;0.00;;;0.60;99.90;;;;;;5068511;28;20214;-82
2022/12/19 07:52:50;;;;;;;0.10;0.10;;;0.40;99.90;;;;;;5069467;28;20247;-83
2022/12/19 07:55:15;;;;;;;0.10;0.10;;;0.70;99.90;;;;;;5053761;28;20190;-83
2022/12/19 07:57:41;;;;;;;0.10;0.10;;;0.50;99.90;;;;;;5067236;28;20210;-85
2022/12/19 08:00:07;;;;;;;0.10;0.10;;;0.40;99.90;;;;;;5067282;28;20292;-83
2022/12/19 08:02:33;;;;;;;0.10;0.10;;;0.60;99.90;;;;;;5067427;28;20248;-83
2022/12/19 08:04:58;;;;;;;0.00;0.00;;;0.80;99.90;;;;;;5070334;28;20206;-81
2022/12/19 08:07:24;;;;;;;0.10;0.10;;;0.90;99.90;;;;;;5070125;28;20187;-80
2022/12/19 08:09:49;;;;;;;0.10;0.10;;;0.60;99.90;;;;;;5059858;28;20265;-82
2022/12/19 08:12:15;;;;;;;0.10;0.10;;;0.50;99.90;;;;;;5073688;28;20189;-82
2022/12/19 08:14:41;;;;;;;0.10;0.10;;;0.30;99.90;;;;;;5072280;28;20196;-80
2022/12/19 08:17:06;;;;;;;0.10;0.10;;;0.30;99.90;;;;;;5053912;28;20702;-81
2022/12/19 08:19:32;;;;;;;0.10;0.10;;;0.50;99.90;;;;;;5057776;28;20205;-80
2022/12/19 08:21:57;;;;;;;0.00;0.00;;;0.70;99.90;;;;;;5056365;28;20185;-80
2022/12/19 08:24:23;;;;;;;0.10;0.10;;;0.90;99.90;;;;;;5071150;28;20207;-80
2022/12/19 08:26:49;;;;;;;0.07;0.07;;;0.80;99.90;;;;;;5055059;28;20198;-80
2022/12/19 08:29:14;;;;;;;0.10;0.10;;;0.80;99.90;;;;;;5070096;28;20204;-81
2022/12/19 08:31:40;;;;;;;0.10;0.10;;;1.00;99.90;;;;;;5051058;28;20263;-81
2022/12/19 08:34:05;;;;;;;0.10;0.10;;;0.80;99.90;;;;;;5068653;28;20275;-81
2022/12/19 08:36:31;;;;;;;0.10;0.10;;;0.70;99.90;;;;;;5068650;28;20208;-81
2022/12/19 08:38:57;;;;;;;0.00;0.00;;;0.70;99.90;;;;;;5054803;28;20203;-80
2022/12/19 08:41:23;;;;;;;0.10;0.10;;;0.80;99.90;;;;;;5054252;28;20193;-81
2022/12/19 08:43:51;;;;;;;0.10;0.10;;;0.60;99.90;;;;;;5067988;28;20657;-81
2022/12/19 08:46:18;;;;;;;0.10;0.10;;;0.60;99.90;;;;;;5051394;28;20545;-82
2022/12/19 08:48:44;;;;;;;0.10;0.10;;;0.60;99.90;;;;;;5054261;28;20703;-84
2022/12/19 08:51:11;;;;;;;0.10;0.10;;;0.80;99.90;;;;;;5069707;28;20264;-82
2022/12/19 08:53:41;;;;;;;0.10;0.10;;;1.00;99.90;;;;;;5072772;28;20313;-82
2022/12/19 08:56:11;;;;;;;0.03;0.03;;;1.20;99.90;;;;;;5050128;28;20252;-82
2022/12/19 08:58:37;;;;;;;0.00;0.00;;;1.30;99.90;;;;;;5055515;28;20227;-84
2022/12/19 09:01:07;;;;;;;0.10;0.10;;;1.40;99.90;;;;;;5068454;28;20192;-83
2022/12/19 09:03:33;;;;;;;0.10;0.10;;;1.20;99.90;;;;;;5055337;28;20184;-83
2022/12/19 09:06:00;;;;;;;0.10;0.10;;;0.90;99.90;;;;;;5068881;28;20214;-83
2022/12/19 09:08:30;;;;;;;0.00;0.00;;;0.80;99.90;;;;;;5055144;28;20194;-81
2022/12/19 09:11:00;;;;;;;0.10;0.10;;;0.90;99.90;;;;;;5063352;28;20275;-81
2022/12/19 09:13:27;;;;;;;0.10;0.10;;;1.00;99.90;;;;;;5048047;28;20194;-81
2022/12/19 09:16:07;;;;;;;0.10;0.10;;;0.90;99.90;;;;;;5053728;28;20190;-80
2022/12/19 09:18:33;;;;;;;3.83;2.17;;;1.00;99.90;;;;;;5053037;28;20292;-80
2022/12/19 09:20:59;;;;;;;0.10;0.10;;;0.90;99.90;;;;;;5070373;28;20285;-81
2022/12/19 09:23:26;;;;;;;0.10;0.10;;;0.80;99.90;;;;;;5068041;28;20187;-80
2022/12/19 09:25:53;;;;;;;0.10;0.10;;;0.90;99.90;;;;;;5067491;28;20920;-81
2022/12/19 09:28:19;;;;;;;0.10;0.10;;;0.90;99.90;;;;;;5069188;28;20930;-80
2022/12/19 09:30:44;;;;;;;0.10;0.10;;;1.00;99.90;;;;;;5069993;28;20244;-81
2022/12/19 09:33:10;;;;;;;0.10;0.10;;;1.00;99.90;;;;;;5069138;28;20187;-80
2022/12/19 09:35:36;;;;;;;0.03;0.03;;;0.90;99.90;;;;;;5066617;28;20190;-80
2022/12/19 09:38:02;;;;;;;0.10;0.10;;;0.90;99.90;;;;;;5070092;28;20200;-80
2022/12/19 09:40:34;;;;;;;0.10;0.10;;;1.00;99.90;;;;;;5068552;28;20715;-81
2022/12/19 09:43:21;;;;;;;0.10;0.10;;;0.90;99.90;;;;;;5067081;28;20179;-81
2022/12/19 09:45:59;;;;;;;0.10;0.10;;;1.00;99.90;;;;;;5054622;28;20256;-81
2022/12/19 09:48:24;;;;;;;0.10;0.10;;;1.00;99.90;;;;;;5055679;28;20195;-81
2022/12/19 09:51:13;;;;;;;0.10;0.10;;;0.90;99.90;;;;;;5070472;28;20193;-81
2022/12/19 09:53:53;;;;;;;0.10;0.10;;;0.90;99.90;;;;;;5058279;28;20730;-81
2022/12/19 09:56:20;;;;;;;0.40;0.40;;;0.90;99.90;;;;;;5056600;28;20195;-81
2022/12/19 09:58:51;;;;;;;0.10;0.10;;;0.80;99.90;;;;;;5066800;28;20266;-79
2022/12/19 10:01:22;;;;;;;0.10;0.10;;;0.80;99.90;;;;;;5058815;28;20236;-81
2022/12/19 10:04:18;;;;;;;0.10;0.10;;;0.80;99.90;;;;;;5054872;28;20775;-81
2022/12/19 10:06:44;;;;;;;0.10;0.10;;;0.80;99.90;;;;;;5069031;28;20214;-80
2022/12/19 10:09:18;;;;;;;0.10;0.10;;;0.80;99.90;;;;;;5069466;28;20236;-80
2022/12/19 10:12:14;;;;;;;0.10;0.10;;;0.70;99.90;;;;;;5073080;28;20192;-81
2022/12/19 10:15:07;;;;;;;0.00;0.00;;;0.70;99.90;;;;;;5070261;28;20179;-80
2022/12/19 10:17:58;;;;;;;0.10;0.10;;;0.80;99.90;;;;;;5053720;28;20673;-80
2022/12/19 10:20:29;;;;;;;0.10;0.10;;;0.90;99.90;;;;;;5068268;28;20311;-81
2022/12/19 10:23:16;;;;;;;0.10;0.10;;;0.90;99.90;;;;;;5056175;28;20656;-80
2022/12/19 10:26:01;;;;;;;0.10;0.10;;;0.90;99.90;;;;;;5063735;28;20277;-79
2022/12/19 10:28:51;;;;;;;0.10;0.10;;;0.90;99.90;;;;;;5065455;28;20201;-79
2022/12/19 10:31:19;;;;;;;0.10;0.10;;;0.90;99.90;;;;;;5065079;28;20245;-81
2022/12/19 10:33:58;;;;;;;0.10;0.10;;;0.90;99.90;;;;;;5083577;28;20194;-80
2022/12/19 10:36:24;;;;;;;0.10;0.10;;;0.90;99.90;;;;;;5060948;28;20656;-81
2022/12/19 10:39:03;;;;;;;0.10;0.10;;;1.00;99.90;;;;;;5056792;28;20257;-80
2022/12/19 10:41:31;;;;;;;0.10;0.10;;;1.10;99.90;;;;;;5055946;28;20188;-82
2022/12/19 10:44:05;;;;;;;0.10;0.10;;;1.00;99.90;;;;;;5059475;28;20182;-80
2022/12/19 10:46:48;;;;;;;0.10;0.10;;;1.00;99.90;;;;;;5072322;28;20238;-81
2022/12/19 10:49:24;;;;;;;0.10;0.10;;;1.00;99.90;;;;;;5069365;28;20851;-83
2022/12/19 10:52:04;;;;;;;0.10;0.10;;;1.10;99.90;;;;;;5053441;28;20181;-80
2022/12/19 10:54:37;;;;;;;0.10;0.10;;;1.30;99.90;;;;;;5053982;28;20657;-80
2022/12/19 10:57:21;;;;;;;0.10;0.10;;;1.20;99.90;;;;;;5068534;28;20192;-80
2022/12/19 11:00:16;;;;;;;0.10;0.10;;;1.10;99.90;;;;;;5068682;28;20980;-80
2022/12/19 11:02:47;;;;;;;0.10;0.10;;;1.20;99.90;;;;;;5070927;28;20696;-80
2022/12/19 11:05:42;;;;;;;0.10;0.10;;;1.20;99.90;;;;;;5056523;28;20215;-81
2022/12/19 11:08:07;;;;;;;0.00;0.00;;;1.20;99.90;;;;;;5054614;28;20241;-80
2022/12/19 11:10:46;;;;;;;0.03;0.03;;;1.30;99.90;;;;;;5067925;28;20185;-81
2022/12/19 11:13:28;;;;;;;0.10;0.10;;;1.40;99.90;;;;;;5071071;28;20282;-81
2022/12/19 11:15:54;;;;;;;0.10;0.10;;;1.60;99.90;;;;;;5065841;28;20275;-81
2022/12/19 11:18:22;;;;;;;0.10;0.10;;;1.70;99.90;;;;;;5059664;28;20196;-82
2022/12/19 11:21:17;;;;;;;0.10;0.10;;;1.60;99.90;;;;;;5056347;28;20201;-81
2022/12/19 11:24:19;;;;;;;0.10;0.10;;;1.50;99.90;;;;;;5051050;28;20214;-79
2022/12/19 11:26:47;;;;;;;0.10;0.10;;;1.40;99.90;;;;;;5054115;28;20206;-81
2022/12/19 11:29:20;;;;;;;0.10;0.10;;;1.40;99.90;;;;;;5055968;28;20208;-82
2022/12/19 11:31:47;;;;;;;0.10;0.10;;;1.40;99.90;;;;;;5070466;28;20189;-81
2022/12/19 11:34:22;;;;;;;0.10;0.10;;;1.60;99.90;;;;;;5056295;28;20183;-82
2022/12/19 11:36:54;;;;;;;0.10;0.10;;;1.60;99.90;;;;;;5070229;28;20188;-80
2022/12/19 11:39:42;;;;;;;0.10;0.10;;;1.70;99.90;;;;;;5071307;28;20227;-82
2022/12/19 11:42:25;;;;;;;0.10;0.10;;;1.60;99.90;;;;;;5069397;28;20195;-81
2022/12/19 11:45:09;;;;;;;0.10;0.10;;;1.70;99.90;;;;;;5068825;28;20202;-81
2022/12/19 11:47:55;;;;;;;0.10;0.10;;;1.70;99.90;;;;;;5057650;28;20232;-82
2022/12/19 11:50:26;;;;;;;0.10;0.10;;;1.70;99.90;;;;;;5055361;28;20213;-81
2022/12/19 11:53:01;;;;;;;0.10;0.10;;;1.80;99.90;;;;;;5073619;28;20194;-82
2022/12/19 11:55:38;;;;;;;0.10;0.10;;;1.80;99.90;;;;;;5055833;28;20221;-81
2022/12/19 11:58:03;;;;;;;0.10;0.10;;;1.60;99.90;;;;;;5067877;28;20198;-82
2022/12/19 12:00:30;;;;;;;0.10;0.10;;;1.90;99.90;;;;;;5057330;28;20269;-82
2022/12/19 12:03:11;;;;;;;0.10;0.10;;;2.10;99.90;;;;;;5069350;28;20198;-81
2022/12/19 12:05:46;;;;;;;0.10;0.10;;;2.30;99.90;;;;;;5065335;28;20682;-82
2022/12/19 12:08:36;;;;;;;0.10;0.10;;;2.20;99.90;;;;;;5064685;28;20181;-82
2022/12/19 12:11:27;;;;;;;0.03;0.03;;;2.10;99.90;;;;;;5069236;28;20185;-80
2022/12/19 12:14:21;;;;;;;0.10;0.10;;;2.20;99.90;;;;;;5068665;28;20189;-81
2022/12/19 12:17:08;;;;;;;0.10;0.10;;;2.10;99.90;;;;;;5053687;28;20226;-80
2022/12/19 12:19:43;;;;;;;0.10;0.10;;;1.80;99.90;;;;;;5055551;28;20583;-81
2022/12/19 12:22:19;;;;;;;0.10;0.10;;;1.70;99.90;;;;;;5070830;28;20210;-80
2022/12/19 12:25:12;;;;;;;0.10;0.10;;;1.80;99.90;;;;;;5054315;28;20532;-80
2022/12/19 12:27:56;;;;;;;0.10;0.10;;;1.90;99.90;;;;;;5071824;28;20662;-81
2022/12/19 12:30:22;;;;;;;0.10;0.10;;;1.90;99.90;;;;;;5056018;28;20206;-81
2022/12/19 12:33:11;;;;;;;0.07;0.07;;;1.90;99.90;;;;;;5070835;28;20276;-82
2022/12/19 12:35:38;;;;;;;0.10;0.10;;;2.00;99.90;;;;;;5067982;28;20672;-81
2022/12/19 12:38:19;;;;;;;0.10;0.10;;;1.90;99.90;;;;;;5071587;28;20186;-80
2022/12/19 12:40:52;;;;;;;0.10;0.10;;;1.80;99.90;;;;;;5069200;28;20194;-80
2022/12/19 12:43:27;;;;;;;0.10;0.10;;;1.80;99.90;;;;;;5056130;28;20662;-81
2022/12/19 12:45:52;;;;;;;0.00;0.00;;;1.80;99.90;;;;;;5051690;28;20309;-81
2022/12/19 12:48:54;;;;;;;0.10;0.10;;;1.90;99.90;;;;;;5055478;28;20818;-81
2022/12/19 12:51:21;;;;;;;0.10;0.10;;;1.90;99.90;;;;;;5052606;28;20200;-80
2022/12/19 12:53:48;;;;;;;0.10;0.10;;;1.90;99.90;;;;;;5067586;28;20647;-81
2022/12/19 12:56:16;;;;;;;0.10;0.10;;;2.00;99.90;;;;;;5053963;28;20267;-80
2022/12/19 12:58:48;;;;;;;0.10;0.10;;;2.00;99.90;;;;;;5060719;28;20236;-82
2022/12/19 13:01:39;;;;;;;0.10;0.10;;;2.00;99.90;;;;;;5083424;28;20188;-81
2022/12/19 13:04:15;;;;;;;0.10;0.10;;;2.00;99.90;;;;;;5065126;28;20222;-81
2022/12/19 13:07:14;;;;;;;0.10;0.10;;;2.00;99.90;;;;;;5066140;28;20186;-81
2022/12/19 13:09:40;;;;;;;0.10;0.10;;;1.90;99.90;;;;;;5066386;28;20274;-81
2022/12/19 13:15:26;;;;;;;0.10;0.10;;;1.90;99.90;;;;;;5058640;28;20778;-80
2022/12/19 13:17:52;;;;;;;0.10;0.10;;;1.90;99.90;;;;;;5071980;28;20410;-81
2022/12/19 13:20:17;;;;;;;0.10;0.10;;;2.10;99.90;;;;;;5071818;28;20740;-82